LGIR/HER METAR and TAF weather

Enter ICAO airport designator
Station Type Date Time Source
LGIR METAR 2019/04/25 17:50 UTC NOAA

LGIR 251750Z 32005KT 9999 FEW030 BKN090 19/16 Q1021 NOSIG


Station Type Date Time Source
LGIR Decoded METAR 2019/04/25 17:50 UTC NOAA

Heraklion Airport , Greece (LGIR) 35-20N 025-11E 39M
Apr 25, 2019 - 01:50 PM EDT / 2019.04.25 1750 UTC
Wind: from the NW (320 degrees) at 6 MPH (5 KT):0
Visibility: greater than 7 mile(s):0
Sky conditions: mostly cloudy
Temperature: 66 F (19 C)
Dew Point: 60 F (16 C)
Relative Humidity: 82%
Pressure (altimeter): 30.15 in. Hg (1021 hPa)
ob: LGIR 251750Z 32005KT 9999 FEW030 BKN090 19/16 Q1021 NOSIG
cycle: 18

Station Type Date Time Source
LGIR TAF 2019/04/25 18:12 UTC NOAA

TAF LGIR 251700Z 2518/2618 VRB05KT 9999 FEW025 BKN080
BECMG 2607/2609 02010KT

Example: see airport list